createdAt,value
2022-10-15T00:00:52.326Z,70.37
2022-10-15T00:03:19.199Z,64.87
2022-10-15T00:05:46.128Z,63.03
2022-10-15T00:08:19.199Z,65.20
2022-10-15T00:10:46.530Z,60.33
2022-10-15T00:14:03.863Z,62.23
2022-10-15T00:20:47.157Z,64.67
2022-10-15T00:31:48.951Z,64.17
2022-10-15T00:38:20.565Z,70.37
2022-10-15T00:44:31.061Z,67.93
2022-10-15T00:47:44.751Z,71.10
2022-10-15T00:50:32.707Z,68.20
2022-10-15T01:28:32.519Z,61.27
2022-10-15T01:31:02.887Z,65.10
2022-10-15T01:40:05.966Z,65.10
2022-10-15T01:44:05.075Z,62.30
2022-10-15T01:47:09.192Z,65.17
2022-10-15T01:49:55.350Z,66.97
2022-10-15T01:55:15.050Z,67.60
2022-10-15T01:57:47.353Z,66.07
2022-10-15T02:03:14.476Z,65.07
2022-10-15T02:05:53.089Z,63.03
2022-10-15T02:08:32.839Z,63.80
2022-10-15T02:11:06.794Z,67.93
2022-10-15T02:14:04.212Z,63.43
2022-10-15T02:17:15.153Z,67.30
2022-10-15T02:20:29.115Z,60.33
2022-10-15T02:23:39.757Z,60.20
2022-10-15T02:29:11.140Z,65.03
2022-10-15T02:31:44.160Z,63.53
2022-10-15T02:34:28.723Z,63.50
2022-10-15T02:37:02.184Z,64.87
2022-10-15T02:42:19.117Z,61.90
2022-10-15T02:45:24.823Z,56.77
2022-10-15T02:47:57.492Z,58.90
2022-10-15T02:56:16.217Z,51.77
2022-10-15T02:58:45.657Z,53.97
2022-10-15T03:06:50.462Z,53.80
2022-10-15T03:36:14.458Z,66.63
2022-10-15T03:43:22.963Z,65.13
2022-10-15T04:01:29.881Z,67.60
2022-10-15T04:09:59.846Z,70.60
2022-10-15T04:12:41.974Z,60.37
2022-10-15T04:16:14.221Z,67.13
2022-10-15T04:59:14.256Z,60.07
2022-10-15T05:13:19.848Z,66.60
2022-10-15T05:32:35.541Z,67.80
2022-10-15T06:11:36.857Z,62.27
2022-10-15T06:37:41.361Z,58.07
2022-10-15T06:40:40.846Z,58.13
2022-10-15T06:56:30.347Z,50.50
2022-10-15T06:58:57.353Z,52.73
2022-10-15T07:01:26.594Z,53.53
2022-10-15T07:03:58.662Z,46.70
2022-10-15T07:06:31.900Z,52.60
2022-10-15T07:09:31.170Z,52.20
2022-10-15T07:12:22.283Z,51.70
2022-10-15T07:19:00.212Z,45.80
2022-10-15T07:22:02.606Z,52.47
2022-10-15T07:25:25.119Z,48.60
2022-10-15T07:28:13.474Z,48.60
2022-10-15T07:30:53.422Z,47.90
2022-10-15T07:33:23.048Z,43.30
2022-10-15T07:40:30.550Z,45.40
2022-10-15T07:58:14.184Z,43.83
2022-10-15T08:00:50.595Z,46.87
2022-10-15T08:03:36.785Z,40.37
2022-10-15T08:06:08.665Z,38.80
2022-10-15T08:08:36.746Z,38.97
2022-10-15T08:13:04.022Z,38.60
2022-10-15T08:22:53.243Z,39.03
2022-10-15T08:25:20.118Z,38.00
2022-10-15T08:30:48.973Z,38.77
2022-10-15T08:33:16.256Z,37.83
2022-10-15T08:35:44.355Z,35.67
2022-10-15T08:41:43.972Z,37.00
2022-10-15T08:44:25.068Z,36.90
2022-10-15T08:47:04.958Z,32.07
2022-10-15T08:50:01.066Z,34.70
2022-10-15T08:52:47.718Z,33.33
2022-10-15T08:55:19.794Z,30.37
2022-10-15T08:58:02.678Z,31.07
2022-10-15T09:03:43.485Z,34.20
2022-10-15T09:06:28.976Z,32.13
2022-10-15T09:09:04.818Z,32.33
2022-10-15T09:12:05.233Z,27.90
2022-10-15T09:14:38.053Z,28.73
2022-10-15T09:17:22.917Z,30.10
2022-10-15T09:19:56.548Z,31.80
2022-10-15T09:22:36.247Z,30.23
2022-10-15T09:25:34.387Z,30.13
2022-10-15T09:28:17.291Z,30.33
2022-10-15T09:30:53.004Z,30.97
2022-10-15T09:51:52.161Z,27.03
2022-10-15T09:59:05.937Z,29.90
2022-10-15T10:06:24.442Z,27.63
2022-10-15T10:09:45.506Z,28.37
2022-10-15T10:12:23.031Z,29.27
2022-10-15T10:15:09.673Z,26.73
2022-10-15T10:17:41.473Z,26.07
2022-10-15T10:20:35.512Z,26.90
2022-10-15T10:27:29.683Z,27.57
2022-10-15T10:30:06.846Z,26.77
2022-10-15T10:32:35.269Z,27.67
2022-10-15T10:35:04.405Z,26.50
2022-10-15T10:37:51.152Z,25.80
2022-10-15T10:40:23.432Z,26.13
2022-10-15T10:43:21.543Z,27.23
2022-10-15T10:46:00.653Z,25.57
2022-10-15T10:48:45.241Z,26.00
2022-10-15T10:51:22.379Z,26.20
2022-10-15T10:54:06.295Z,23.60
2022-10-15T10:56:59.445Z,23.57
2022-10-15T10:59:32.644Z,23.17
2022-10-15T11:02:27.896Z,22.63
2022-10-15T11:04:54.736Z,21.97
2022-10-15T11:07:54.892Z,21.37
2022-10-15T11:10:32.268Z,18.07
2022-10-15T11:15:56.007Z,20.10
2022-10-15T11:18:33.043Z,22.40
2022-10-15T11:21:18.443Z,24.17
2022-10-15T11:24:03.710Z,20.23
2022-10-15T11:26:37.020Z,21.17
2022-10-15T11:33:47.149Z,18.60
2022-10-15T11:39:58.853Z,19.23
2022-10-15T11:46:42.844Z,17.90
2022-10-15T11:55:33.683Z,18.70
2022-10-15T12:05:01.773Z,20.50
2022-10-15T12:08:08.522Z,18.90
2022-10-15T12:10:58.201Z,18.70
2022-10-15T12:13:56.026Z,18.97
2022-10-15T12:17:12.214Z,18.80
2022-10-15T12:20:30.737Z,18.43
2022-10-15T12:26:29.854Z,21.97
2022-10-15T12:29:00.872Z,21.93
2022-10-15T12:32:32.904Z,19.00
2022-10-15T12:37:50.601Z,20.30
2022-10-15T12:40:23.248Z,19.27
2022-10-15T12:42:53.884Z,17.83
2022-10-15T12:45:23.852Z,18.30
2022-10-15T12:47:54.687Z,19.03
2022-10-15T12:50:34.938Z,20.20
2022-10-15T12:53:34.612Z,19.53
2022-10-15T12:56:13.873Z,18.77
2022-10-15T12:59:22.888Z,19.90
2022-10-15T13:01:55.873Z,19.97
2022-10-15T13:04:23.063Z,17.70
2022-10-15T13:07:07.499Z,23.77
2022-10-15T13:09:43.043Z,18.27
2022-10-15T13:12:26.158Z,18.00
2022-10-15T13:14:57.834Z,17.93
2022-10-15T13:17:25.223Z,20.23
2022-10-15T13:20:05.777Z,20.17
2022-10-15T13:22:35.045Z,20.73
2022-10-15T13:28:15.389Z,19.40
2022-10-15T13:31:12.874Z,19.83
2022-10-15T13:37:00.395Z,18.27
2022-10-15T13:39:39.448Z,21.03
2022-10-15T13:42:24.200Z,17.40
2022-10-15T13:45:18.406Z,21.03
2022-10-15T13:47:54.053Z,21.43
2022-10-15T13:50:33.535Z,21.37
2022-10-15T13:53:16.723Z,21.50
2022-10-15T13:55:50.303Z,21.23
2022-10-15T13:58:29.258Z,21.23
2022-10-15T14:01:24.344Z,17.93
2022-10-15T14:04:02.777Z,19.93
2022-10-15T14:06:34.893Z,22.37
2022-10-15T14:09:18.277Z,17.90
2022-10-15T14:11:45.726Z,20.03
2022-10-15T14:14:31.607Z,19.33
2022-10-15T14:17:04.399Z,21.10
2022-10-15T14:19:32.468Z,21.60
2022-10-15T14:22:03.386Z,19.63
2022-10-15T14:24:46.231Z,20.73
2022-10-15T14:27:45.600Z,19.83
2022-10-15T14:33:54.849Z,17.83
2022-10-15T14:36:49.594Z,20.87
2022-10-15T14:39:27.369Z,22.73
2022-10-15T14:42:32.202Z,21.87
2022-10-15T14:47:34.653Z,20.67
2022-10-15T14:50:06.374Z,18.60
2022-10-15T14:52:36.379Z,20.20
2022-10-15T14:55:11.874Z,20.63
2022-10-15T14:57:43.659Z,20.53
2022-10-15T15:00:32.417Z,21.50
2022-10-15T15:03:12.115Z,17.93
2022-10-15T15:06:11.972Z,20.67
2022-10-15T15:08:38.941Z,23.83
2022-10-15T15:11:18.353Z,20.03
2022-10-15T15:13:57.803Z,23.40
2022-10-15T15:16:30.923Z,23.03
2022-10-15T15:18:58.541Z,21.20
2022-10-15T15:26:18.715Z,21.83
2022-10-15T15:29:53.579Z,22.80
2022-10-15T15:35:53.234Z,20.77
2022-10-15T15:39:04.977Z,22.83
2022-10-15T15:42:21.470Z,23.43
2022-10-15T15:44:56.375Z,20.47
2022-10-15T15:52:57.240Z,24.10
2022-10-15T15:58:32.918Z,23.70
2022-10-15T16:03:40.883Z,25.30
2022-10-15T16:06:12.256Z,22.33
2022-10-15T16:08:42.454Z,24.93
2022-10-15T16:11:09.975Z,29.47
2022-10-15T16:13:37.402Z,23.70
2022-10-15T16:16:04.530Z,24.37
2022-10-15T16:22:18.345Z,28.27
2022-10-15T16:24:46.097Z,29.27
2022-10-15T16:27:13.074Z,28.20
2022-10-15T16:29:42.801Z,27.87
2022-10-15T16:32:09.916Z,27.87
2022-10-15T16:34:36.807Z,29.47
2022-10-15T16:37:04.527Z,27.13
2022-10-15T16:39:31.396Z,28.53
2022-10-15T16:41:58.668Z,25.50
2022-10-15T16:44:25.743Z,26.27
2022-10-15T16:46:52.917Z,27.27
2022-10-15T16:49:19.863Z,26.53
2022-10-15T16:51:52.576Z,26.23
2022-10-15T16:54:20.065Z,29.10
2022-10-15T16:59:31.102Z,26.27
2022-10-15T17:02:10.461Z,28.13
2022-10-15T17:04:46.901Z,31.07
2022-10-15T17:07:13.782Z,28.13
2022-10-15T17:09:41.448Z,26.07
2022-10-15T17:12:08.710Z,27.13
2022-10-15T17:14:36.068Z,26.93
2022-10-15T17:17:03.088Z,28.87
2022-10-15T17:19:51.429Z,30.57
2022-10-15T17:22:18.463Z,28.37
2022-10-15T17:24:48.638Z,32.37
2022-10-15T17:27:16.047Z,29.77
2022-10-15T17:29:55.459Z,30.37
2022-10-15T17:32:31.400Z,32.33
2022-10-15T17:35:10.305Z,28.60
2022-10-15T17:37:37.435Z,29.50
2022-10-15T17:40:04.794Z,31.17
2022-10-15T17:42:31.718Z,30.70
2022-10-15T17:44:58.807Z,33.63
2022-10-15T17:47:26.464Z,31.70
2022-10-15T17:49:53.889Z,30.60
2022-10-15T17:52:28.502Z,32.90
2022-10-15T17:55:01.615Z,34.83
2022-10-15T17:57:28.711Z,28.57
2022-10-15T17:59:55.968Z,35.37
2022-10-15T18:02:23.125Z,33.30
2022-10-15T18:04:53.186Z,31.00
2022-10-15T18:07:30.543Z,31.00
2022-10-15T18:10:00.951Z,32.83
2022-10-15T18:12:28.024Z,37.13
2022-10-15T18:14:55.021Z,32.87
2022-10-15T18:17:22.067Z,33.37
2022-10-15T18:19:49.182Z,34.37
2022-10-15T18:22:16.290Z,30.50
2022-10-15T18:24:49.625Z,33.13
2022-10-15T18:27:16.542Z,31.87
2022-10-15T18:29:46.764Z,31.90
2022-10-15T18:32:13.945Z,33.60
2022-10-15T18:34:40.828Z,34.57
2022-10-15T18:37:07.780Z,30.77
2022-10-15T18:39:41.167Z,32.20
2022-10-15T18:42:14.546Z,34.50
2022-10-15T18:44:41.686Z,32.87
2022-10-15T18:47:08.990Z,35.00
2022-10-15T18:49:36.128Z,30.27
2022-10-15T18:52:10.812Z,31.70
2022-10-15T18:54:48.809Z,32.13
2022-10-15T18:57:21.341Z,29.60
2022-10-15T18:59:49.012Z,31.83
2022-10-15T19:02:15.978Z,34.83
2022-10-15T19:04:49.122Z,29.67
2022-10-15T19:07:31.741Z,36.77
2022-10-15T19:10:04.014Z,32.97
2022-10-15T19:12:31.074Z,36.77
2022-10-15T19:14:58.239Z,35.00
2022-10-15T19:17:25.841Z,31.67
2022-10-15T19:19:52.875Z,33.30
2022-10-15T19:22:19.995Z,29.83
2022-10-15T19:24:46.947Z,30.07
2022-10-15T19:27:14.381Z,31.70
2022-10-15T19:29:43.906Z,31.83
2022-10-15T19:32:12.194Z,32.03
2022-10-15T19:34:41.693Z,35.30
2022-10-15T19:37:08.724Z,33.50
2022-10-15T19:39:39.342Z,30.10
2022-10-15T19:42:09.601Z,32.53
2022-10-15T19:44:40.626Z,31.50
2022-10-15T19:47:07.660Z,32.97
2022-10-15T19:49:35.110Z,33.00
2022-10-15T19:52:04.324Z,31.03
2022-10-15T19:54:31.272Z,31.67
2022-10-15T19:56:58.531Z,30.30
2022-10-15T19:59:25.487Z,31.73
2022-10-15T20:01:52.426Z,31.70
2022-10-15T20:04:19.453Z,28.60
2022-10-15T20:06:46.616Z,28.07
2022-10-15T20:09:13.637Z,30.37
2022-10-15T20:11:40.710Z,30.37
2022-10-15T20:14:07.674Z,30.37
2022-10-15T20:16:34.978Z,31.00
2022-10-15T20:19:03.477Z,28.73
2022-10-15T20:21:30.597Z,32.17
2022-10-15T20:23:58.300Z,30.60
2022-10-15T20:26:25.484Z,30.47
2022-10-15T20:28:56.349Z,29.43
2022-10-15T20:31:31.562Z,31.80
2022-10-15T20:34:06.093Z,31.00
2022-10-15T20:36:33.028Z,30.10
2022-10-15T20:39:01.878Z,29.10
2022-10-15T20:41:28.930Z,27.97
2022-10-15T20:43:56.367Z,27.77
2022-10-15T20:46:48.925Z,28.63
2022-10-15T20:52:12.393Z,28.23
2022-10-15T20:54:42.925Z,28.30
2022-10-15T20:57:12.735Z,29.83
2022-10-15T20:59:52.534Z,28.87
2022-10-15T21:02:19.486Z,28.03
2022-10-15T21:04:51.199Z,26.50
2022-10-15T21:07:18.790Z,23.83
2022-10-15T21:09:48.676Z,24.77
2022-10-15T21:12:30.922Z,24.23
2022-10-15T21:14:57.871Z,24.80
2022-10-15T21:17:25.751Z,25.73
2022-10-15T21:20:02.905Z,23.77
2022-10-15T21:22:30.349Z,24.27
2022-10-15T21:24:57.569Z,25.37
2022-10-15T21:27:24.803Z,23.77
2022-10-15T21:30:01.103Z,23.23
2022-10-15T21:32:28.507Z,23.10
2022-10-15T21:34:55.564Z,25.23
2022-10-15T21:37:22.753Z,21.70
2022-10-15T21:39:50.765Z,25.67
2022-10-15T21:42:23.624Z,21.73
2022-10-15T21:44:50.532Z,23.37
2022-10-15T21:47:17.590Z,22.20
2022-10-15T21:49:46.227Z,23.03
2022-10-15T21:52:13.459Z,22.10
2022-10-15T21:54:43.533Z,25.60
2022-10-15T21:57:10.686Z,23.47
2022-10-15T21:59:49.525Z,22.87
2022-10-15T22:05:06.711Z,24.63
2022-10-15T22:07:37.183Z,24.30
2022-10-15T22:10:07.158Z,22.93
2022-10-15T22:12:40.315Z,23.93
2022-10-15T22:15:07.813Z,23.17
2022-10-15T22:17:35.055Z,22.33
2022-10-15T22:20:23.689Z,23.90
2022-10-15T22:23:02.392Z,25.97
2022-10-15T22:25:37.890Z,25.30
2022-10-15T22:28:08.061Z,25.13
2022-10-15T22:30:44.362Z,23.20
2022-10-15T22:33:17.963Z,23.77
2022-10-15T22:35:47.949Z,24.60
2022-10-15T22:38:27.515Z,25.77
2022-10-15T22:40:58.077Z,23.77
2022-10-15T22:43:34.504Z,22.00
2022-10-15T22:46:05.539Z,22.80
2022-10-15T22:51:24.077Z,20.07
2022-10-15T22:53:56.273Z,21.83
2022-10-15T22:56:32.063Z,23.50
2022-10-15T22:58:59.418Z,22.77
2022-10-15T23:01:28.892Z,20.73
2022-10-15T23:04:02.114Z,19.63
2022-10-15T23:06:30.390Z,19.13
2022-10-15T23:08:58.728Z,18.83
2022-10-15T23:11:32.239Z,18.27
2022-10-15T23:14:09.203Z,23.40
2022-10-15T23:16:41.178Z,19.87
2022-10-15T23:19:21.357Z,17.63
2022-10-15T23:21:50.546Z,20.07
2022-10-15T23:24:25.808Z,20.17
2022-10-15T23:27:05.775Z,20.37
2022-10-15T23:29:32.805Z,20.00
2022-10-15T23:32:02.938Z,20.90
2022-10-15T23:34:29.863Z,17.90
2022-10-15T23:36:57.197Z,20.13
2022-10-15T23:39:30.285Z,21.03
2022-10-15T23:41:57.245Z,17.27
2022-10-15T23:44:28.922Z,21.93
2022-10-15T23:47:13.642Z,17.57
2022-10-15T23:49:40.675Z,19.77
2022-10-15T23:52:07.933Z,19.83
2022-10-15T23:54:38.635Z,20.60
2022-10-15T23:57:05.748Z,19.27
2022-10-15T23:59:33.160Z,19.67
